sensor_id;sensor_type;location;lat;lon;timestamp;pressure;altitude;pressure_sealevel;temperature;humidity
10948;BME280;5526;42.070;24.752;2022-09-29T00:01:44;97978.41;;;19.20;71.06
10948;BME280;5526;42.070;24.752;2022-09-29T00:04:12;97983.38;;;19.21;70.85
10948;BME280;5526;42.070;24.752;2022-09-29T00:06:39;97981.72;;;19.17;71.13
10948;BME280;5526;42.070;24.752;2022-09-29T00:09:06;97987.38;;;19.15;71.32
10948;BME280;5526;42.070;24.752;2022-09-29T00:11:35;97982.28;;;19.10;71.19
10948;BME280;5526;42.070;24.752;2022-09-29T00:14:02;97985.16;;;19.05;71.56
10948;BME280;5526;42.070;24.752;2022-09-29T00:16:29;97984.81;;;19.07;71.33
10948;BME280;5526;42.070;24.752;2022-09-29T00:18:57;97978.03;;;18.97;72.09
10948;BME280;5526;42.070;24.752;2022-09-29T00:21:24;97977.25;;;18.85;73.05
10948;BME280;5526;42.070;24.752;2022-09-29T00:23:51;97976.03;;;18.82;73.56
10948;BME280;5526;42.070;24.752;2022-09-29T00:26:20;97973.38;;;18.82;74.29
10948;BME280;5526;42.070;24.752;2022-09-29T00:28:51;97958.34;;;18.78;74.69
10948;BME280;5526;42.070;24.752;2022-09-29T00:31:20;97965.13;;;18.75;73.97
10948;BME280;5526;42.070;24.752;2022-09-29T00:33:48;97952.56;;;18.88;72.24
10948;BME280;5526;42.070;24.752;2022-09-29T00:36:17;97944.25;;;19.01;71.11
10948;BME280;5526;42.070;24.752;2022-09-29T00:38:45;97958.47;;;18.93;71.61
10948;BME280;5526;42.070;24.752;2022-09-29T00:41:14;97957.47;;;18.86;71.48
10948;BME280;5526;42.070;24.752;2022-09-29T00:43:56;97959.69;;;18.96;71.33
10948;BME280;5526;42.070;24.752;2022-09-29T00:46:30;97948.59;;;18.94;70.85
10948;BME280;5526;42.070;24.752;2022-09-29T00:49:02;97924.59;;;18.82;71.13
10948;BME280;5526;42.070;24.752;2022-09-29T00:51:32;97945.03;;;18.90;72.53
10948;BME280;5526;42.070;24.752;2022-09-29T00:54:01;97937.38;;;18.88;71.65
10948;BME280;5526;42.070;24.752;2022-09-29T00:56:30;97952.47;;;18.84;72.81
10948;BME280;5526;42.070;24.752;2022-09-29T00:59:00;97934.03;;;18.67;73.95
10948;BME280;5526;42.070;24.752;2022-09-29T01:01:30;97949.56;;;18.77;73.56
10948;BME280;5526;42.070;24.752;2022-09-29T01:04:02;97947.38;;;18.79;73.26
10948;BME280;5526;42.070;24.752;2022-09-29T01:06:33;97940.81;;;18.77;73.70
10948;BME280;5526;42.070;24.752;2022-09-29T01:09:04;97946.88;;;18.65;74.28
10948;BME280;5526;42.070;24.752;2022-09-29T01:11:32;97955.44;;;18.59;74.37
10948;BME280;5526;42.070;24.752;2022-09-29T01:14:04;97956.09;;;18.56;75.30
10948;BME280;5526;42.070;24.752;2022-09-29T01:16:33;97963.56;;;18.09;78.43
10948;BME280;5526;42.070;24.752;2022-09-29T01:19:05;97966.03;;;17.94;79.56
10948;BME280;5526;42.070;24.752;2022-09-29T01:21:40;97976.16;;;17.59;82.81
10948;BME280;5526;42.070;24.752;2022-09-29T01:24:29;97974.38;;;17.43;83.84
10948;BME280;5526;42.070;24.752;2022-09-29T01:27:29;97976.31;;;17.25;84.89
10948;BME280;5526;42.070;24.752;2022-09-29T01:30:15;97973.06;;;17.20;85.41
10948;BME280;5526;42.070;24.752;2022-09-29T01:33:07;97979.78;;;16.79;89.01
10948;BME280;5526;42.070;24.752;2022-09-29T01:35:44;97990.94;;;16.64;90.65
10948;BME280;5526;42.070;24.752;2022-09-29T01:38:26;98000.50;;;16.57;91.85
10948;BME280;5526;42.070;24.752;2022-09-29T01:41:02;97998.16;;;16.55;91.86
10948;BME280;5526;42.070;24.752;2022-09-29T01:43:34;98014.22;;;16.33;93.41
10948;BME280;5526;42.070;24.752;2022-09-29T01:46:07;98010.50;;;16.34;94.40
10948;BME280;5526;42.070;24.752;2022-09-29T01:48:42;98011.13;;;16.31;95.43
10948;BME280;5526;42.070;24.752;2022-09-29T01:51:13;98029.53;;;16.11;98.55
10948;BME280;5526;42.070;24.752;2022-09-29T01:53:45;98023.47;;;16.02;99.89
10948;BME280;5526;42.070;24.752;2022-09-29T01:56:17;98026.09;;;15.93;100.00
10948;BME280;5526;42.070;24.752;2022-09-29T01:58:52;98029.22;;;16.04;100.00
10948;BME280;5526;42.070;24.752;2022-09-29T02:01:22;98032.66;;;16.04;100.00
10948;BME280;5526;42.070;24.752;2022-09-29T02:03:58;98029.25;;;16.12;100.00
10948;BME280;5526;42.070;24.752;2022-09-29T02:06:32;98017.22;;;16.15;100.00
10948;BME280;5526;42.070;24.752;2022-09-29T02:09:06;98023.94;;;16.12;100.00
10948;BME280;5526;42.070;24.752;2022-09-29T02:11:37;98032.06;;;16.07;100.00
10948;BME280;5526;42.070;24.752;2022-09-29T02:14:11;98023.94;;;16.12;100.00
10948;BME280;5526;42.070;24.752;2022-09-29T02:16:44;98006.13;;;16.04;100.00
10948;BME280;5526;42.070;24.752;2022-09-29T02:19:16;98020.03;;;16.10;100.00
10948;BME280;5526;42.070;24.752;2022-09-29T02:21:45;98013.63;;;16.02;100.00
10948;BME280;5526;42.070;24.752;2022-09-29T02:24:13;98025.03;;;16.11;100.00
10948;BME280;5526;42.070;24.752;2022-09-29T02:26:41;98035.31;;;16.21;100.00
10948;BME280;5526;42.070;24.752;2022-09-29T02:29:09;98039.69;;;16.26;99.83
10948;BME280;5526;42.070;24.752;2022-09-29T02:31:37;98018.75;;;16.16;100.00
10948;BME280;5526;42.070;24.752;2022-09-29T02:34:05;98007.69;;;16.05;100.00
10948;BME280;5526;42.070;24.752;2022-09-29T02:36:41;98035.00;;;16.23;100.00
10948;BME280;5526;42.070;24.752;2022-09-29T02:39:17;98005.03;;;15.71;100.00
10948;BME280;5526;42.070;24.752;2022-09-29T02:41:58;98026.06;;;15.59;100.00
10948;BME280;5526;42.070;24.752;2022-09-29T02:44:37;98031.03;;;15.52;100.00
10948;BME280;5526;42.070;24.752;2022-09-29T02:47:18;98039.78;;;15.61;100.00
10948;BME280;5526;42.070;24.752;2022-09-29T02:50:12;98052.78;;;15.71;100.00
10948;BME280;5526;42.070;24.752;2022-09-29T02:52:50;98053.09;;;15.87;100.00
10948;BME280;5526;42.070;24.752;2022-09-29T02:55:24;98054.34;;;15.89;100.00
10948;BME280;5526;42.070;24.752;2022-09-29T02:57:58;98052.00;;;15.88;100.00
10948;BME280;5526;42.070;24.752;2022-09-29T03:00:28;98042.66;;;15.82;100.00
10948;BME280;5526;42.070;24.752;2022-09-29T03:02:56;98045.91;;;15.79;100.00
10948;BME280;5526;42.070;24.752;2022-09-29T03:05:23;98057.31;;;15.79;100.00
10948;BME280;5526;42.070;24.752;2022-09-29T03:07:52;98054.66;;;15.79;100.00
10948;BME280;5526;42.070;24.752;2022-09-29T03:10:19;98043.75;;;15.81;100.00
10948;BME280;5526;42.070;24.752;2022-09-29T03:12:46;98052.94;;;15.92;100.00
10948;BME280;5526;42.070;24.752;2022-09-29T03:15:14;98048.44;;;16.01;100.00
10948;BME280;5526;42.070;24.752;2022-09-29T03:17:42;98048.44;;;16.09;100.00
10948;BME280;5526;42.070;24.752;2022-09-29T03:20:10;98043.75;;;16.15;100.00
10948;BME280;5526;42.070;24.752;2022-09-29T03:22:37;98037.53;;;16.19;100.00
10948;BME280;5526;42.070;24.752;2022-09-29T03:25:07;98028.94;;;16.22;100.00
10948;BME280;5526;42.070;24.752;2022-09-29T03:27:34;98022.53;;;16.23;100.00
10948;BME280;5526;42.070;24.752;2022-09-29T03:30:03;98024.25;;;16.19;100.00
10948;BME280;5526;42.070;24.752;2022-09-29T03:32:30;98022.84;;;16.22;100.00
10948;BME280;5526;42.070;24.752;2022-09-29T03:34:57;98020.00;;;16.27;100.00
10948;BME280;5526;42.070;24.752;2022-09-29T03:37:25;98037.81;;;16.35;99.92
10948;BME280;5526;42.070;24.752;2022-09-29T03:39:52;98043.13;;;16.35;99.71
10948;BME280;5526;42.070;24.752;2022-09-29T03:42:21;98036.09;;;16.39;98.74
10948;BME280;5526;42.070;24.752;2022-09-29T03:44:48;98033.59;;;16.25;99.81
10948;BME280;5526;42.070;24.752;2022-09-29T03:47:16;98038.59;;;16.35;98.97
10948;BME280;5526;42.070;24.752;2022-09-29T03:49:43;98035.16;;;16.35;98.94
10948;BME280;5526;42.070;24.752;2022-09-29T03:52:11;98048.13;;;16.36;98.83
10948;BME280;5526;42.070;24.752;2022-09-29T03:54:38;98048.44;;;16.35;98.89
10948;BME280;5526;42.070;24.752;2022-09-29T03:57:05;98037.69;;;16.31;99.18
10948;BME280;5526;42.070;24.752;2022-09-29T03:59:34;98048.31;;;16.40;98.46
10948;BME280;5526;42.070;24.752;2022-09-29T04:02:01;98046.41;;;16.40;98.36
10948;BME280;5526;42.070;24.752;2022-09-29T04:04:28;98047.38;;;16.44;98.27
10948;BME280;5526;42.070;24.752;2022-09-29T04:06:56;98044.06;;;16.39;98.36
10948;BME280;5526;42.070;24.752;2022-09-29T04:09:23;98052.81;;;16.31;99.13
10948;BME280;5526;42.070;24.752;2022-09-29T04:11:50;98053.13;;;16.29;98.61
10948;BME280;5526;42.070;24.752;2022-09-29T04:14:17;98051.75;;;16.32;98.60
10948;BME280;5526;42.070;24.752;2022-09-29T04:16:46;98056.41;;;16.35;98.44
10948;BME280;5526;42.070;24.752;2022-09-29T04:19:13;98066.88;;;16.31;98.10
10948;BME280;5526;42.070;24.752;2022-09-29T04:21:40;98074.69;;;16.28;98.25
10948;BME280;5526;42.070;24.752;2022-09-29T04:24:08;98075.00;;;16.26;98.66
10948;BME280;5526;42.070;24.752;2022-09-29T04:26:35;98081.38;;;16.25;98.14
10948;BME280;5526;42.070;24.752;2022-09-29T04:29:02;98092.94;;;16.12;99.19
10948;BME280;5526;42.070;24.752;2022-09-29T04:31:29;98095.91;;;16.02;100.00
10948;BME280;5526;42.070;24.752;2022-09-29T04:33:58;98100.25;;;15.98;100.00
10948;BME280;5526;42.070;24.752;2022-09-29T04:36:25;98098.81;;;15.75;100.00
10948;BME280;5526;42.070;24.752;2022-09-29T04:38:52;98104.13;;;15.75;100.00
10948;BME280;5526;42.070;24.752;2022-09-29T04:41:20;98107.13;;;15.91;100.00
10948;BME280;5526;42.070;24.752;2022-09-29T04:43:47;98104.00;;;15.97;100.00
10948;BME280;5526;42.070;24.752;2022-09-29T04:46:14;98106.00;;;15.92;100.00
10948;BME280;5526;42.070;24.752;2022-09-29T04:48:42;98117.28;;;15.97;100.00
10948;BME280;5526;42.070;24.752;2022-09-29T04:51:10;98122.88;;;15.87;100.00
10948;BME280;5526;42.070;24.752;2022-09-29T04:53:38;98119.88;;;15.80;100.00
10948;BME280;5526;42.070;24.752;2022-09-29T04:56:06;98121.28;;;15.86;100.00
10948;BME280;5526;42.070;24.752;2022-09-29T04:58:33;98126.31;;;15.96;100.00
10948;BME280;5526;42.070;24.752;2022-09-29T05:01:05;98126.84;;;16.15;99.97
10948;BME280;5526;42.070;24.752;2022-09-29T05:03:33;98119.31;;;16.17;100.00
10948;BME280;5526;42.070;24.752;2022-09-29T05:06:00;98123.41;;;16.23;99.93
10948;BME280;5526;42.070;24.752;2022-09-29T05:08:29;98129.34;;;16.37;98.57
10948;BME280;5526;42.070;24.752;2022-09-29T05:10:56;98131.59;;;16.44;97.73
10948;BME280;5526;42.070;24.752;2022-09-29T05:13:23;98135.50;;;16.46;97.84
10948;BME280;5526;42.070;24.752;2022-09-29T05:15:54;98137.81;;;16.56;97.18
10948;BME280;5526;42.070;24.752;2022-09-29T05:18:22;98142.84;;;16.41;97.94
10948;BME280;5526;42.070;24.752;2022-09-29T05:20:49;98141.75;;;16.50;97.33
10948;BME280;5526;42.070;24.752;2022-09-29T05:23:18;98137.06;;;16.47;96.85
10948;BME280;5526;42.070;24.752;2022-09-29T05:25:47;98137.81;;;16.56;96.69
10948;BME280;5526;42.070;24.752;2022-09-29T05:28:14;98127.50;;;16.63;95.72
10948;BME280;5526;42.070;24.752;2022-09-29T05:30:42;98126.72;;;16.71;95.44
10948;BME280;5526;42.070;24.752;2022-09-29T05:33:09;98128.78;;;16.83;94.26
10948;BME280;5526;42.070;24.752;2022-09-29T05:35:37;98117.97;;;16.97;92.71
10948;BME280;5526;42.070;24.752;2022-09-29T05:38:04;98123.91;;;16.93;93.20
10948;BME280;5526;42.070;24.752;2022-09-29T05:40:32;98122.94;;;16.98;93.12
10948;BME280;5526;42.070;24.752;2022-09-29T05:43:00;98124.03;;;17.06;92.58
10948;BME280;5526;42.070;24.752;2022-09-29T05:45:28;98122.31;;;17.18;92.20
10948;BME280;5526;42.070;24.752;2022-09-29T05:47:55;98126.44;;;17.53;90.55
10948;BME280;5526;42.070;24.752;2022-09-29T05:50:22;98126.34;;;17.79;89.44
10948;BME280;5526;42.070;24.752;2022-09-29T05:52:49;98125.91;;;17.97;88.09
10948;BME280;5526;42.070;24.752;2022-09-29T05:55:17;98113.84;;;18.00;87.94
10948;BME280;5526;42.070;24.752;2022-09-29T05:57:47;98108.13;;;18.10;87.94
10948;BME280;5526;42.070;24.752;2022-09-29T06:00:16;98121.94;;;18.32;87.04
10948;BME280;5526;42.070;24.752;2022-09-29T06:02:44;98116.63;;;18.53;86.25
10948;BME280;5526;42.070;24.752;2022-09-29T06:05:11;98113.28;;;18.76;85.24
10948;BME280;5526;42.070;24.752;2022-09-29T06:07:38;98119.28;;;19.06;83.68
10948;BME280;5526;42.070;24.752;2022-09-29T06:10:06;98104.00;;;19.27;82.36
10948;BME280;5526;42.070;24.752;2022-09-29T06:12:34;98097.38;;;19.33;81.61
10948;BME280;5526;42.070;24.752;2022-09-29T06:15:02;98098.72;;;19.51;80.81
10948;BME280;5526;42.070;24.752;2022-09-29T06:17:31;98100.94;;;19.49;80.56
10948;BME280;5526;42.070;24.752;2022-09-29T06:19:59;98100.38;;;19.67;79.79
10948;BME280;5526;42.070;24.752;2022-09-29T06:22:26;98097.69;;;19.91;79.05
10948;BME280;5526;42.070;24.752;2022-09-29T06:24:54;98100.59;;;20.10;77.57
10948;BME280;5526;42.070;24.752;2022-09-29T06:27:21;98104.47;;;20.01;77.02
10948;BME280;5526;42.070;24.752;2022-09-29T06:29:48;98097.81;;;20.07;77.08
10948;BME280;5526;42.070;24.752;2022-09-29T06:32:16;98097.84;;;20.46;75.97
10948;BME280;5526;42.070;24.752;2022-09-29T06:34:45;98105.94;;;20.62;74.06
10948;BME280;5526;42.070;24.752;2022-09-29T06:37:29;98107.94;;;20.65;73.28
10948;BME280;5526;42.070;24.752;2022-09-29T06:40:05;98110.50;;;20.89;73.01
10948;BME280;5526;42.070;24.752;2022-09-29T06:42:34;98107.94;;;21.20;71.50
10948;BME280;5526;42.070;24.752;2022-09-29T06:45:01;98102.31;;;21.25;69.58
10948;BME280;5526;42.070;24.752;2022-09-29T06:47:29;98115.50;;;21.18;69.85
10948;BME280;5526;42.070;24.752;2022-09-29T06:49:57;98111.69;;;21.04;70.05
10948;BME280;5526;42.070;24.752;2022-09-29T06:52:27;98111.75;;;20.92;70.80
10948;BME280;5526;42.070;24.752;2022-09-29T06:54:54;98114.38;;;20.76;71.57
10948;BME280;5526;42.070;24.752;2022-09-29T06:57:22;98121.84;;;20.98;71.08
10948;BME280;5526;42.070;24.752;2022-09-29T06:59:49;98125.47;;;21.33;69.56
10948;BME280;5526;42.070;24.752;2022-09-29T07:02:19;98110.38;;;21.72;67.44
10948;BME280;5526;42.070;24.752;2022-09-29T07:04:46;98113.56;;;21.77;66.72
10948;BME280;5526;42.070;24.752;2022-09-29T07:07:15;98117.34;;;22.07;64.25
10948;BME280;5526;42.070;24.752;2022-09-29T07:09:42;98120.66;;;21.85;65.86
10948;BME280;5526;42.070;24.752;2022-09-29T07:12:10;98130.22;;;22.17;64.68
10948;BME280;5526;42.070;24.752;2022-09-29T07:14:37;98134.84;;;22.20;64.38
10948;BME280;5526;42.070;24.752;2022-09-29T07:17:05;98145.34;;;22.10;65.19
10948;BME280;5526;42.070;24.752;2022-09-29T07:19:33;98142.31;;;22.46;63.60
10948;BME280;5526;42.070;24.752;2022-09-29T07:22:00;98141.50;;;22.80;61.69
10948;BME280;5526;42.070;24.752;2022-09-29T07:24:30;98145.59;;;22.93;61.15
10948;BME280;5526;42.070;24.752;2022-09-29T07:27:00;98139.16;;;23.16;59.82
10948;BME280;5526;42.070;24.752;2022-09-29T07:29:28;98134.09;;;23.30;58.70
10948;BME280;5526;42.070;24.752;2022-09-29T07:31:57;98140.28;;;23.15;58.37
10948;BME280;5526;42.070;24.752;2022-09-29T07:34:25;98124.59;;;23.17;58.14
10948;BME280;5526;42.070;24.752;2022-09-29T07:36:52;98121.91;;;23.17;58.39
10948;BME280;5526;42.070;24.752;2022-09-29T07:39:19;98122.56;;;23.11;58.70
10948;BME280;5526;42.070;24.752;2022-09-29T07:41:48;98118.59;;;23.05;59.11
10948;BME280;5526;42.070;24.752;2022-09-29T07:44:16;98112.16;;;23.28;58.77
10948;BME280;5526;42.070;24.752;2022-09-29T07:46:43;98121.19;;;23.39;58.09
10948;BME280;5526;42.070;24.752;2022-09-29T07:49:11;98126.91;;;23.60;57.58
10948;BME280;5526;42.070;24.752;2022-09-29T07:51:38;98136.16;;;23.85;56.48
10948;BME280;5526;42.070;24.752;2022-09-29T07:54:05;98126.16;;;23.86;55.60
10948;BME280;5526;42.070;24.752;2022-09-29T07:56:33;98132.66;;;23.81;55.90
10948;BME280;5526;42.070;24.752;2022-09-29T07:59:02;98136.81;;;23.79;55.41
10948;BME280;5526;42.070;24.752;2022-09-29T08:01:30;98157.59;;;23.59;55.86
10948;BME280;5526;42.070;24.752;2022-09-29T08:03:57;98159.41;;;23.74;55.44
10948;BME280;5526;42.070;24.752;2022-09-29T08:06:26;98158.72;;;23.81;55.57
10948;BME280;5526;42.070;24.752;2022-09-29T08:08:53;98155.22;;;23.99;55.39
10948;BME280;5526;42.070;24.752;2022-09-29T08:11:21;98156.47;;;24.05;54.62
10948;BME280;5526;42.070;24.752;2022-09-29T08:13:50;98163.38;;;24.06;54.76
10948;BME280;5526;42.070;24.752;2022-09-29T08:16:20;98158.75;;;24.29;54.21
10948;BME280;5526;42.070;24.752;2022-09-29T08:18:47;98164.22;;;24.63;52.44
10948;BME280;5526;42.070;24.752;2022-09-29T08:21:15;98169.00;;;24.76;52.33
10948;BME280;5526;42.070;24.752;2022-09-29T08:23:43;98170.84;;;25.02;51.05
10948;BME280;5526;42.070;24.752;2022-09-29T08:26:13;98169.94;;;24.91;51.37
10948;BME280;5526;42.070;24.752;2022-09-29T08:28:41;98168.50;;;25.00;51.13
10948;BME280;5526;42.070;24.752;2022-09-29T08:31:09;98158.94;;;25.03;50.62
10948;BME280;5526;42.070;24.752;2022-09-29T08:33:39;98159.28;;;25.31;49.66
10948;BME280;5526;42.070;24.752;2022-09-29T08:36:07;98170.41;;;25.66;49.51
10948;BME280;5526;42.070;24.752;2022-09-29T08:38:40;98169.81;;;25.90;47.99
10948;BME280;5526;42.070;24.752;2022-09-29T08:41:27;98160.44;;;26.24;47.49
10948;BME280;5526;42.070;24.752;2022-09-29T08:44:00;98157.63;;;26.60;47.64
10948;BME280;5526;42.070;24.752;2022-09-29T08:46:32;98154.41;;;26.41;45.96
10948;BME280;5526;42.070;24.752;2022-09-29T08:49:09;98151.25;;;25.78;47.55
10948;BME280;5526;42.070;24.752;2022-09-29T08:51:42;98156.81;;;25.99;46.93
10948;BME280;5526;42.070;24.752;2022-09-29T08:54:19;98166.50;;;26.07;46.58
10948;BME280;5526;42.070;24.752;2022-09-29T08:56:48;98158.38;;;26.57;45.34
10948;BME280;5526;42.070;24.752;2022-09-29T08:59:16;98166.13;;;26.66;44.77
10948;BME280;5526;42.070;24.752;2022-09-29T09:01:53;98160.75;;;26.69;43.06
10948;BME280;5526;42.070;24.752;2022-09-29T09:04:42;98150.44;;;26.92;43.17
10948;BME280;5526;42.070;24.752;2022-09-29T09:07:17;98149.66;;;26.95;42.02
10948;BME280;5526;42.070;24.752;2022-09-29T09:09:59;98155.09;;;27.06;41.83
10948;BME280;5526;42.070;24.752;2022-09-29T09:12:56;98148.59;;;27.17;41.60
10948;BME280;5526;42.070;24.752;2022-09-29T09:15:36;98155.59;;;27.36;43.34
10948;BME280;5526;42.070;24.752;2022-09-29T09:18:26;98153.69;;;27.75;41.56
10948;BME280;5526;42.070;24.752;2022-09-29T09:21:05;98151.78;;;28.14;41.14
10948;BME280;5526;42.070;24.752;2022-09-29T09:23:41;98151.81;;;27.86;40.89
10948;BME280;5526;42.070;24.752;2022-09-29T09:26:11;98154.13;;;27.87;40.56
10948;BME280;5526;42.070;24.752;2022-09-29T09:28:44;98143.66;;;27.61;41.65
10948;BME280;5526;42.070;24.752;2022-09-29T09:31:17;98137.84;;;27.56;41.72
10948;BME280;5526;42.070;24.752;2022-09-29T09:33:48;98137.06;;;27.38;42.17
10948;BME280;5526;42.070;24.752;2022-09-29T09:36:21;98131.66;;;27.41;42.94
10948;BME280;5526;42.070;24.752;2022-09-29T09:38:56;98120.41;;;27.15;42.45
10948;BME280;5526;42.070;24.752;2022-09-29T09:41:26;98126.88;;;26.86;43.62
10948;BME280;5526;42.070;24.752;2022-09-29T09:43:57;98126.50;;;26.94;43.24
10948;BME280;5526;42.070;24.752;2022-09-29T09:46:30;98119.09;;;26.70;43.85
10948;BME280;5526;42.070;24.752;2022-09-29T09:49:02;98107.44;;;26.56;44.30
10948;BME280;5526;42.070;24.752;2022-09-29T09:51:38;98110.53;;;26.54;44.22
10948;BME280;5526;42.070;24.752;2022-09-29T09:54:12;98111.38;;;26.69;44.60
10948;BME280;5526;42.070;24.752;2022-09-29T09:56:51;98124.47;;;26.67;44.20
10948;BME280;5526;42.070;24.752;2022-09-29T09:59:33;98118.34;;;26.77;43.77
10948;BME280;5526;42.070;24.752;2022-09-29T10:02:05;98115.31;;;26.85;44.55
10948;BME280;5526;42.070;24.752;2022-09-29T10:04:39;98128.03;;;26.85;44.66
10948;BME280;5526;42.070;24.752;2022-09-29T10:07:07;98124.59;;;26.98;44.65
10948;BME280;5526;42.070;24.752;2022-09-29T10:09:35;98135.03;;;27.00;45.40
10948;BME280;5526;42.070;24.752;2022-09-29T10:12:03;98133.88;;;27.11;45.12
10948;BME280;5526;42.070;24.752;2022-09-29T10:14:30;98132.28;;;26.93;44.83
10948;BME280;5526;42.070;24.752;2022-09-29T10:17:00;98139.66;;;27.03;44.22
10948;BME280;5526;42.070;24.752;2022-09-29T10:19:51;98136.13;;;26.85;44.33
10948;BME280;5526;42.070;24.752;2022-09-29T10:22:20;98137.66;;;26.82;44.76
10948;BME280;5526;42.070;24.752;2022-09-29T10:24:51;98142.00;;;27.11;45.98
10948;BME280;5526;42.070;24.752;2022-09-29T10:27:23;98138.59;;;27.32;44.27
10948;BME280;5526;42.070;24.752;2022-09-29T10:29:54;98138.22;;;27.33;43.33
10948;BME280;5526;42.070;24.752;2022-09-29T10:32:26;98140.16;;;27.40;43.52
10948;BME280;5526;42.070;24.752;2022-09-29T10:35:05;98131.63;;;27.27;43.27
10948;BME280;5526;42.070;24.752;2022-09-29T10:37:37;98140.16;;;27.40;42.45
10948;BME280;5526;42.070;24.752;2022-09-29T10:40:15;98127.81;;;27.53;42.44
10948;BME280;5526;42.070;24.752;2022-09-29T10:42:46;98125.50;;;27.79;42.61
10948;BME280;5526;42.070;24.752;2022-09-29T10:45:17;98126.66;;;28.03;42.51
10948;BME280;5526;42.070;24.752;2022-09-29T10:47:46;98125.91;;;27.92;41.92
10948;BME280;5526;42.070;24.752;2022-09-29T10:50:16;98121.63;;;28.01;41.27
10948;BME280;5526;42.070;24.752;2022-09-29T10:52:49;98119.34;;;27.93;41.96
10948;BME280;5526;42.070;24.752;2022-09-29T10:55:20;98112.34;;;28.09;40.77
10948;BME280;5526;42.070;24.752;2022-09-29T10:57:49;98107.34;;;28.01;41.09
10948;BME280;5526;42.070;24.752;2022-09-29T11:00:28;98101.53;;;28.09;41.13
10948;BME280;5526;42.070;24.752;2022-09-29T11:03:03;98103.88;;;28.04;42.13
10948;BME280;5526;42.070;24.752;2022-09-29T11:05:32;98091.47;;;28.24;42.49
10948;BME280;5526;42.070;24.752;2022-09-29T11:08:02;98098.38;;;28.36;41.62
10948;BME280;5526;42.070;24.752;2022-09-29T11:10:32;98093.69;;;28.57;41.17
10948;BME280;5526;42.070;24.752;2022-09-29T11:13:34;98092.38;;;28.90;39.37
10948;BME280;5526;42.070;24.752;2022-09-29T11:16:03;98079.94;;;29.03;40.09
10948;BME280;5526;42.070;24.752;2022-09-29T11:18:34;98079.47;;;29.18;39.84
10948;BME280;5526;42.070;24.752;2022-09-29T11:21:13;98074.75;;;29.29;38.82
10948;BME280;5526;42.070;24.752;2022-09-29T11:23:52;98070.53;;;29.21;38.89
10948;BME280;5526;42.070;24.752;2022-09-29T11:26:27;98073.75;;;29.06;39.21
10948;BME280;5526;42.070;24.752;2022-09-29T11:29:20;98066.34;;;29.10;38.53
10948;BME280;5526;42.070;24.752;2022-09-29T11:32:03;98067.16;;;29.03;38.97
10948;BME280;5526;42.070;24.752;2022-09-29T11:35:05;98068.97;;;29.24;39.30
10948;BME280;5526;42.070;24.752;2022-09-29T11:37:45;98076.19;;;29.41;39.16
10948;BME280;5526;42.070;24.752;2022-09-29T11:40:24;98071.91;;;29.43;37.71
10948;BME280;5526;42.070;24.752;2022-09-29T11:43:05;98072.19;;;29.59;37.80
10948;BME280;5526;42.070;24.752;2022-09-29T11:45:42;98067.38;;;29.33;37.78
10948;BME280;5526;42.070;24.752;2022-09-29T11:51:25;98070.56;;;29.72;36.96
10948;BME280;5526;42.070;24.752;2022-09-29T11:54:11;98059.41;;;29.60;37.04
10948;BME280;5526;42.070;24.752;2022-09-29T11:56:50;98056.53;;;29.33;37.80
10948;BME280;5526;42.070;24.752;2022-09-29T11:59:31;98051.75;;;29.44;37.13
10948;BME280;5526;42.070;24.752;2022-09-29T12:02:18;98049.47;;;29.39;37.25
10948;BME280;5526;42.070;24.752;2022-09-29T12:04:55;98053.69;;;29.47;37.26
10948;BME280;5526;42.070;24.752;2022-09-29T12:07:32;98053.31;;;29.45;37.12
10948;BME280;5526;42.070;24.752;2022-09-29T12:10:19;98055.28;;;29.41;36.52
10948;BME280;5526;42.070;24.752;2022-09-29T12:12:57;98060.91;;;29.64;36.64
10948;BME280;5526;42.070;24.752;2022-09-29T12:15:34;98060.13;;;29.67;35.96
10948;BME280;5526;42.070;24.752;2022-09-29T12:18:10;98051.63;;;29.65;35.77
10948;BME280;5526;42.070;24.752;2022-09-29T12:20:42;98051.34;;;29.49;36.81
10948;BME280;5526;42.070;24.752;2022-09-29T12:23:13;98056.88;;;29.35;37.64
10948;BME280;5526;42.070;24.752;2022-09-29T12:25:51;98057.50;;;29.53;37.17
10948;BME280;5526;42.070;24.752;2022-09-29T12:28:24;98061.75;;;29.58;36.49
10948;BME280;5526;42.070;24.752;2022-09-29T12:30:56;98065.03;;;29.79;36.95
10948;BME280;5526;42.070;24.752;2022-09-29T12:33:30;98060.22;;;29.97;35.82
10948;BME280;5526;42.070;24.752;2022-09-29T12:36:08;98058.69;;;29.96;36.51
10948;BME280;5526;42.070;24.752;2022-09-29T12:38:56;98055.91;;;29.63;36.59
10948;BME280;5526;42.070;24.752;2022-09-29T12:41:29;98051.47;;;29.79;36.81
10948;BME280;5526;42.070;24.752;2022-09-29T12:44:08;98058.88;;;29.75;36.38
10948;BME280;5526;42.070;24.752;2022-09-29T12:46:43;98053.25;;;29.96;36.15
10948;BME280;5526;42.070;24.752;2022-09-29T12:49:16;98049.50;;;29.83;35.87
10948;BME280;5526;42.070;24.752;2022-09-29T12:51:46;98053.78;;;29.81;35.75
10948;BME280;5526;42.070;24.752;2022-09-29T12:54:19;98052.59;;;29.85;35.01
10948;BME280;5526;42.070;24.752;2022-09-29T12:56:53;98053.94;;;29.67;35.14
10948;BME280;5526;42.070;24.752;2022-09-29T12:59:32;98049.66;;;29.69;35.89
10948;BME280;5526;42.070;24.752;2022-09-29T13:02:14;98048.59;;;29.97;35.61
10948;BME280;5526;42.070;24.752;2022-09-29T13:10:58;98043.31;;;30.20;35.58
10948;BME280;5526;42.070;24.752;2022-09-29T13:13:55;98053.66;;;30.32;35.62
10948;BME280;5526;42.070;24.752;2022-09-29T13:16:39;98054.69;;;30.41;36.01
10948;BME280;5526;42.070;24.752;2022-09-29T13:19:29;98044.56;;;30.45;35.63
10948;BME280;5526;42.070;24.752;2022-09-29T13:22:20;98050.25;;;30.58;35.55
10948;BME280;5526;42.070;24.752;2022-09-29T13:24:56;98042.41;;;30.63;35.59
10948;BME280;5526;42.070;24.752;2022-09-29T13:27:29;98029.47;;;30.74;35.40
10948;BME280;5526;42.070;24.752;2022-09-29T13:30:02;98042.03;;;30.91;35.06
10948;BME280;5526;42.070;24.752;2022-09-29T13:32:38;98046.28;;;30.92;34.80